Time;durP1;ratioP1;P1;durP2;ratioP2;P2;SDS_P1;SDS_P2;PMS_P1;PMS_P2;Temp;Humidity;BMP_temperature;BMP_pressure;BME280_temperature;BME280_humidity;BME280_pressure;Samples;Min_cycle;Max_cycle;Signal;HPM_P1;HPM_P2
2021/12/19 00:09:24;;;;;;;51.10;33.22;;;;;;;;;;5117578;27;20102;-45
2021/12/19 00:11:49;;;;;;;43.90;30.63;;;;;;;;;;5116647;27;20090;-48
2021/12/19 00:14:14;;;;;;;55.58;34.20;;;;;;;;;;5113261;27;20430;-45
2021/12/19 00:16:39;;;;;;;40.85;34.72;;;;;;;;;;5114462;27;20027;-44
2021/12/19 00:19:05;;;;;;;34.97;30.83;;;;;;;;;;5126707;27;20027;-46
2021/12/19 00:21:31;;;;;;;49.15;39.85;;;;;;;;;;5116557;27;20530;-44
2021/12/19 00:23:57;;;;;;;42.22;35.72;;;;;;;;;;5120194;27;20465;-46
2021/12/19 00:26:22;;;;;;;63.05;45.97;;;;;;;;;;5117048;27;20019;-46
2021/12/19 00:28:48;;;;;;;43.47;38.42;;;;;;;;;;5119375;27;20483;-43
2021/12/19 00:31:13;;;;;;;56.22;43.85;;;;;;;;;;5118627;27;20099;-43
2021/12/19 00:33:39;;;;;;;25.42;23.05;;;;;;;;;;5117489;27;20452;-45
2021/12/19 00:36:06;;;;;;;30.42;26.63;;;;;;;;;;5112416;27;20663;-47
2021/12/19 00:38:31;;;;;;;33.67;26.48;;;;;;;;;;5120997;27;20019;-44
2021/12/19 00:40:57;;;;;;;32.80;28.13;;;;;;;;;;5120057;27;20035;-45
2021/12/19 00:44:08;;;;;;;83.70;48.92;;;;;;;;;;5122964;27;20027;-44
2021/12/19 00:46:16;;;;;;;72.70;49.20;;;;;;;;;;5108293;27;20099;-48
2021/12/19 00:48:46;;;;;;;95.47;64.73;;;;;;;;;;5118072;27;20016;-46
2021/12/19 00:51:14;;;;;;;95.15;59.22;;;;;;;;;;5119072;27;20026;-47
2021/12/19 00:53:40;;;;;;;87.50;62.05;;;;;;;;;;5113983;27;20049;-45
2021/12/19 00:56:05;;;;;;;85.65;56.08;;;;;;;;;;5119871;27;20028;-47
2021/12/19 00:58:31;;;;;;;96.88;56.85;;;;;;;;;;5116183;27;20019;-44
2021/12/19 01:00:56;;;;;;;107.45;57.63;;;;;;;;;;5119946;27;20015;-46
2021/12/19 01:03:22;;;;;;;86.22;55.22;;;;;;;;;;5113635;27;20046;-46
2021/12/19 01:05:47;;;;;;;64.07;47.90;;;;;;;;;;5113118;27;20483;-44
2021/12/19 01:08:13;;;;;;;78.75;43.15;;;;;;;;;;5116126;27;20234;-46
2021/12/19 01:10:39;;;;;;;70.82;43.22;;;;;;;;;;5112999;27;20091;-47
2021/12/19 01:13:05;;;;;;;78.35;39.83;;;;;;;;;;5118882;27;20032;-49
2021/12/19 01:15:31;;;;;;;44.78;33.55;;;;;;;;;;5117483;27;20026;-46
2021/12/19 01:17:56;;;;;;;60.05;39.97;;;;;;;;;;5117674;27;20787;-44
2021/12/19 01:20:23;;;;;;;61.65;36.67;;;;;;;;;;5116571;27;20154;-47
2021/12/19 01:22:49;;;;;;;53.17;34.60;;;;;;;;;;5111330;27;20015;-47
2021/12/19 01:25:15;;;;;;;61.53;36.95;;;;;;;;;;5120794;27;20180;-47
2021/12/19 01:27:40;;;;;;;34.63;28.90;;;;;;;;;;5117776;27;20515;-46
2021/12/19 01:30:06;;;;;;;43.28;34.45;;;;;;;;;;5118776;27;20540;-49
2021/12/19 01:32:32;;;;;;;47.83;27.83;;;;;;;;;;5114418;27;20392;-45
2021/12/19 01:34:57;;;;;;;31.10;22.60;;;;;;;;;;5116747;27;20011;-46
2021/12/19 01:37:23;;;;;;;32.63;25.30;;;;;;;;;;5116491;27;20259;-49
2021/12/19 01:39:48;;;;;;;29.33;20.40;;;;;;;;;;5096944;27;20159;-46
2021/12/19 01:42:14;;;;;;;39.30;21.67;;;;;;;;;;5114118;27;20081;-45
2021/12/19 01:44:40;;;;;;;27.13;20.92;;;;;;;;;;5117352;27;20023;-46
2021/12/19 01:47:06;;;;;;;26.52;22.30;;;;;;;;;;5112844;27;20096;-46
2021/12/19 01:49:31;;;;;;;23.15;18.88;;;;;;;;;;5115857;27;20019;-47
2021/12/19 01:51:57;;;;;;;20.05;15.32;;;;;;;;;;5115856;27;20023;-46
2021/12/19 01:54:22;;;;;;;19.67;14.07;;;;;;;;;;5114284;27;20019;-43
2021/12/19 01:56:47;;;;;;;19.58;15.05;;;;;;;;;;5117845;27;20023;-46
2021/12/19 01:59:13;;;;;;;26.35;13.90;;;;;;;;;;5114721;27;20496;-47
2021/12/19 02:01:45;;;;;;;20.02;11.35;;;;;;;;;;5118624;27;20015;-44
2021/12/19 02:04:11;;;;;;;19.77;13.38;;;;;;;;;;5117552;27;20019;-44
2021/12/19 02:06:36;;;;;;;17.50;9.90;;;;;;;;;;5114361;27;20478;-46
2021/12/19 02:09:06;;;;;;;15.05;7.38;;;;;;;;;;5113774;27;20030;-44
2021/12/19 02:11:32;;;;;;;10.00;8.13;;;;;;;;;;5115931;27;20034;-47
2021/12/19 02:13:58;;;;;;;11.05;9.00;;;;;;;;;;5118504;27;20021;-47
2021/12/19 02:16:24;;;;;;;11.60;7.82;;;;;;;;;;5114051;27;20102;-44
2021/12/19 02:18:49;;;;;;;13.23;9.88;;;;;;;;;;5120280;27;20430;-44
2021/12/19 02:21:16;;;;;;;18.60;9.80;;;;;;;;;;5110811;27;20050;-44
2021/12/19 02:23:41;;;;;;;10.15;9.05;;;;;;;;;;5113845;28;20057;-44
2021/12/19 02:26:06;;;;;;;15.23;9.75;;;;;;;;;;5114130;27;20015;-45
2021/12/19 02:28:31;;;;;;;10.00;8.23;;;;;;;;;;5116484;28;20031;-45
2021/12/19 02:30:57;;;;;;;9.63;8.07;;;;;;;;;;5119092;28;20023;-45
2021/12/19 02:33:25;;;;;;;8.85;7.00;;;;;;;;;;5118245;28;20024;-47
2021/12/19 02:49:44;;;;;;;13.50;6.70;;;;;;;;;;5114106;28;20119;-45
2021/12/19 02:52:11;;;;;;;5.22;3.83;;;;;;;;;;5111500;28;20450;-45
2021/12/19 02:54:36;;;;;;;11.88;4.95;;;;;;;;;;5115835;28;20050;-44
2021/12/19 02:57:01;;;;;;;7.82;4.32;;;;;;;;;;5120007;28;20105;-45
2021/12/19 02:59:27;;;;;;;4.07;3.65;;;;;;;;;;5114058;28;20024;-45
2021/12/19 03:01:53;;;;;;;7.55;4.32;;;;;;;;;;5114523;28;20023;-47
2021/12/19 03:04:18;;;;;;;8.25;4.20;;;;;;;;;;5113337;28;20055;-45
2021/12/19 03:06:45;;;;;;;5.05;3.65;;;;;;;;;;5112654;28;20036;-44
2021/12/19 03:09:11;;;;;;;4.97;3.78;;;;;;;;;;5113349;28;20085;-43
2021/12/19 03:12:04;;;;;;;11.77;4.15;;;;;;;;;;5116581;28;20649;-48
2021/12/19 03:19:58;;;;;;;4.55;2.75;;;;;;;;;;5116113;28;20070;-44
2021/12/19 03:22:24;;;;;;;6.30;3.10;;;;;;;;;;5121417;28;20023;-46
2021/12/19 03:24:49;;;;;;;6.18;2.38;;;;;;;;;;5112740;28;20015;-45
2021/12/19 03:27:14;;;;;;;5.80;3.53;;;;;;;;;;5123319;27;20012;-48
2021/12/19 03:29:40;;;;;;;2.90;1.80;;;;;;;;;;5117316;27;20387;-48
2021/12/19 03:32:05;;;;;;;3.88;2.60;;;;;;;;;;5118712;27;20034;-44
2021/12/19 03:34:32;;;;;;;3.85;1.95;;;;;;;;;;5117527;27;20020;-44
2021/12/19 03:36:59;;;;;;;2.15;1.80;;;;;;;;;;5117250;27;20103;-47
2021/12/19 03:39:36;;;;;;;3.97;1.90;;;;;;;;;;5121504;27;20100;-47
2021/12/19 03:42:01;;;;;;;4.47;2.35;;;;;;;;;;5118313;27;20019;-44
2021/12/19 03:44:27;;;;;;;2.35;1.52;;;;;;;;;;5120817;27;20064;-46
2021/12/19 03:46:52;;;;;;;3.63;2.60;;;;;;;;;;5119390;27;20029;-45
2021/12/19 03:49:19;;;;;;;2.50;1.85;;;;;;;;;;5116166;27;20016;-48
2021/12/19 03:51:44;;;;;;;1.88;1.48;;;;;;;;;;5117807;27;20087;-50
2021/12/19 03:54:10;;;;;;;4.25;1.60;;;;;;;;;;5116697;27;20024;-46
2021/12/19 03:56:35;;;;;;;2.88;2.13;;;;;;;;;;5116123;27;20019;-45
2021/12/19 03:59:00;;;;;;;5.95;2.30;;;;;;;;;;5118543;27;20106;-43
2021/12/19 04:01:26;;;;;;;2.78;1.90;;;;;;;;;;5117208;27;20041;-46
2021/12/19 04:03:51;;;;;;;2.47;1.42;;;;;;;;;;5123215;27;20102;-45
2021/12/19 04:06:17;;;;;;;5.50;1.83;;;;;;;;;;5119406;27;20121;-43
2021/12/19 04:08:42;;;;;;;1.85;1.17;;;;;;;;;;5119188;27;20015;-49
2021/12/19 04:11:07;;;;;;;4.68;2.17;;;;;;;;;;5114675;27;20030;-45
2021/12/19 04:13:33;;;;;;;3.50;2.00;;;;;;;;;;5120520;27;20037;-43
2021/12/19 04:15:58;;;;;;;4.13;1.52;;;;;;;;;;5120085;27;20034;-47
2021/12/19 04:18:23;;;;;;;3.15;1.92;;;;;;;;;;5117728;27;20020;-45
2021/12/19 04:20:49;;;;;;;1.55;1.38;;;;;;;;;;5116415;27;20123;-43
2021/12/19 04:23:15;;;;;;;1.77;1.45;;;;;;;;;;5117303;27;20469;-48
2021/12/19 04:25:40;;;;;;;3.30;1.60;;;;;;;;;;5115140;27;20408;-45
2021/12/19 04:28:05;;;;;;;1.98;1.48;;;;;;;;;;5124565;27;20019;-44
2021/12/19 04:30:31;;;;;;;2.22;1.60;;;;;;;;;;5121765;27;20019;-48
2021/12/19 04:33:15;;;;;;;3.25;1.10;;;;;;;;;;5118330;27;20114;-46
2021/12/19 04:35:43;;;;;;;5.38;2.55;;;;;;;;;;5118910;27;20035;-44
2021/12/19 04:51:51;;;;;;;2.05;1.33;;;;;;;;;;5123368;27;20103;-48
2021/12/19 05:15:28;;;;;;;4.88;2.53;;;;;;;;;;5116555;27;20014;-46
2021/12/19 05:17:56;;;;;;;2.45;1.85;;;;;;;;;;5114746;27;20011;-46
2021/12/19 05:20:26;;;;;;;3.90;2.33;;;;;;;;;;5115761;27;20062;-50
2021/12/19 05:22:56;;;;;;;5.38;3.35;;;;;;;;;;5117672;27;20079;-46
2021/12/19 05:25:21;;;;;;;7.07;3.42;;;;;;;;;;5117638;27;20090;-48
2021/12/19 05:27:50;;;;;;;9.95;4.97;;;;;;;;;;5115644;27;20423;-49
2021/12/19 05:30:15;;;;;;;14.55;5.95;;;;;;;;;;5114800;27;20056;-49
2021/12/19 05:32:41;;;;;;;11.93;6.40;;;;;;;;;;5120625;27;20031;-47
2021/12/19 05:35:08;;;;;;;7.53;5.43;;;;;;;;;;5117742;27;20027;-49
2021/12/19 05:45:46;;;;;;;8.90;6.28;;;;;;;;;;5114111;27;20076;-46
2021/12/19 05:48:12;;;;;;;5.57;3.88;;;;;;;;;;5116395;27;20064;-46
2021/12/19 05:50:39;;;;;;;5.55;4.30;;;;;;;;;;5115779;27;20037;-48
2021/12/19 05:53:05;;;;;;;6.53;4.60;;;;;;;;;;5117335;27;20395;-47
2021/12/19 05:55:30;;;;;;;2.90;2.25;;;;;;;;;;5116482;27;20098;-50
2021/12/19 05:57:56;;;;;;;3.95;3.03;;;;;;;;;;5116767;27;20489;-46
2021/12/19 06:00:21;;;;;;;6.38;5.38;;;;;;;;;;5118117;27;20428;-47
2021/12/19 06:02:46;;;;;;;5.82;4.07;;;;;;;;;;5116060;27;20043;-50
2021/12/19 06:05:12;;;;;;;4.65;3.83;;;;;;;;;;5114471;27;20015;-46
2021/12/19 06:07:38;;;;;;;14.10;6.65;;;;;;;;;;5117943;27;20047;-46
2021/12/19 06:10:04;;;;;;;7.75;7.05;;;;;;;;;;5119277;27;20015;-46
2021/12/19 06:12:29;;;;;;;8.30;7.43;;;;;;;;;;5117207;27;20019;-44
2021/12/19 06:14:54;;;;;;;12.52;9.82;;;;;;;;;;5119096;27;20027;-44
2021/12/19 06:17:20;;;;;;;7.10;6.40;;;;;;;;;;5117703;27;20043;-47
2021/12/19 06:19:45;;;;;;;6.40;5.10;;;;;;;;;;5117995;27;20050;-46
2021/12/19 06:22:10;;;;;;;6.65;4.00;;;;;;;;;;5117644;27;20046;-44
2021/12/19 06:24:36;;;;;;;13.35;10.95;;;;;;;;;;5120169;27;20428;-45
2021/12/19 06:27:02;;;;;;;8.45;6.15;;;;;;;;;;5118136;27;20024;-44
2021/12/19 06:29:28;;;;;;;14.55;7.00;;;;;;;;;;5115389;27;20494;-47
2021/12/19 06:31:53;;;;;;;6.10;4.88;;;;;;;;;;5117092;28;20068;-43
2021/12/19 06:34:18;;;;;;;8.27;4.43;;;;;;;;;;5113478;28;20426;-46
2021/12/19 06:36:44;;;;;;;6.30;5.07;;;;;;;;;;5113847;28;20023;-43
2021/12/19 06:39:09;;;;;;;10.68;4.88;;;;;;;;;;5117768;28;20459;-47
2021/12/19 06:41:36;;;;;;;7.07;5.07;;;;;;;;;;5113892;28;20468;-44
2021/12/19 06:44:01;;;;;;;5.05;4.47;;;;;;;;;;5116996;28;20019;-46
2021/12/19 06:46:26;;;;;;;3.83;3.35;;;;;;;;;;5119815;28;20034;-45
2021/12/19 06:48:52;;;;;;;7.70;6.32;;;;;;;;;;5117133;28;20384;-45
2021/12/19 06:51:17;;;;;;;8.43;7.63;;;;;;;;;;5117108;28;20054;-44
2021/12/19 06:53:42;;;;;;;11.60;8.02;;;;;;;;;;5114814;28;20172;-44
2021/12/19 06:56:08;;;;;;;10.68;8.98;;;;;;;;;;5115126;28;20031;-45
2021/12/19 06:58:33;;;;;;;10.82;6.53;;;;;;;;;;5113378;28;20389;-43
2021/12/19 07:00:59;;;;;;;11.93;10.05;;;;;;;;;;5114558;27;20177;-44
2021/12/19 07:03:24;;;;;;;8.65;6.50;;;;;;;;;;5121306;27;20050;-44
2021/12/19 07:05:50;;;;;;;10.50;5.72;;;;;;;;;;5123807;27;20397;-45
2021/12/19 07:08:15;;;;;;;10.82;9.82;;;;;;;;;;5109270;27;20034;-44
2021/12/19 07:10:41;;;;;;;7.15;6.07;;;;;;;;;;5116861;27;20034;-45
2021/12/19 07:13:06;;;;;;;8.98;8.07;;;;;;;;;;5102132;27;20031;-47
2021/12/19 07:15:31;;;;;;;8.68;7.15;;;;;;;;;;5120603;27;20023;-42
2021/12/19 07:18:02;;;;;;;13.20;7.03;;;;;;;;;;5120068;27;20587;-43
2021/12/19 07:20:27;;;;;;;7.95;7.15;;;;;;;;;;5094762;27;20638;-42
2021/12/19 07:22:52;;;;;;;7.60;6.57;;;;;;;;;;5116066;27;20058;-41
2021/12/19 07:25:18;;;;;;;9.57;8.38;;;;;;;;;;5117524;27;20027;-41
2021/12/19 07:27:43;;;;;;;9.85;8.07;;;;;;;;;;5118365;27;20181;-44
2021/12/19 07:30:09;;;;;;;14.50;7.68;;;;;;;;;;5114171;27;20023;-41
2021/12/19 07:32:36;;;;;;;12.40;11.15;;;;;;;;;;5116448;27;20106;-43
2021/12/19 07:35:01;;;;;;;15.55;12.13;;;;;;;;;;5116772;27;20016;-45
2021/12/19 07:37:27;;;;;;;23.95;12.07;;;;;;;;;;5117836;27;20069;-42
2021/12/19 07:39:57;;;;;;;11.40;8.80;;;;;;;;;;5115996;27;20183;-36
2021/12/19 07:42:22;;;;;;;12.23;8.52;;;;;;;;;;5111341;27;20027;-37
2021/12/19 07:44:47;;;;;;;7.93;6.65;;;;;;;;;;5113289;27;20759;-39
2021/12/19 07:47:14;;;;;;;13.60;10.07;;;;;;;;;;5115526;27;20106;-37
2021/12/19 07:49:39;;;;;;;26.95;16.02;;;;;;;;;;5112134;27;20020;-37
2021/12/19 07:52:04;;;;;;;13.85;12.43;;;;;;;;;;5110979;27;20076;-37
2021/12/19 07:54:30;;;;;;;18.63;16.70;;;;;;;;;;5116374;27;20482;-37
2021/12/19 07:56:55;;;;;;;18.05;15.75;;;;;;;;;;5112655;27;20074;-37
2021/12/19 07:59:20;;;;;;;28.50;18.42;;;;;;;;;;5117137;27;20067;-37
2021/12/19 08:01:46;;;;;;;10.90;9.68;;;;;;;;;;5115700;27;20027;-37
2021/12/19 08:04:11;;;;;;;32.55;12.10;;;;;;;;;;5113217;27;20019;-38
2021/12/19 08:06:36;;;;;;;9.85;8.95;;;;;;;;;;5119249;27;20033;-36
2021/12/19 08:09:21;;;;;;;20.55;13.48;;;;;;;;;;5114966;27;20031;-37
2021/12/19 08:11:47;;;;;;;27.40;18.02;;;;;;;;;;5116690;27;20020;-37
2021/12/19 08:14:14;;;;;;;15.05;12.52;;;;;;;;;;5115194;27;20032;-39
2021/12/19 08:16:40;;;;;;;21.77;13.00;;;;;;;;;;5115361;27;20050;-37
2021/12/19 08:19:05;;;;;;;17.88;15.02;;;;;;;;;;5118108;27;20502;-37
2021/12/19 08:21:31;;;;;;;29.98;16.83;;;;;;;;;;5114219;27;20047;-37
2021/12/19 08:24:00;;;;;;;28.27;19.38;;;;;;;;;;5113719;27;20058;-37
2021/12/19 08:26:25;;;;;;;23.38;16.77;;;;;;;;;;5114410;27;20035;-37
2021/12/19 08:28:51;;;;;;;14.13;12.65;;;;;;;;;;5111802;27;20079;-38
2021/12/19 08:31:16;;;;;;;18.83;16.88;;;;;;;;;;5114143;27;20034;-37
2021/12/19 08:33:41;;;;;;;16.60;14.95;;;;;;;;;;5112962;27;20102;-37
2021/12/19 08:36:07;;;;;;;17.02;14.77;;;;;;;;;;5117311;27;20011;-36
2021/12/19 08:38:33;;;;;;;18.40;16.10;;;;;;;;;;5114036;27;20066;-36
2021/12/19 08:40:59;;;;;;;20.27;17.17;;;;;;;;;;5110174;27;20113;-36
2021/12/19 08:43:24;;;;;;;16.80;15.13;;;;;;;;;;5114347;27;20049;-36
2021/12/19 08:45:49;;;;;;;21.20;19.00;;;;;;;;;;5114475;27;20023;-36
2021/12/19 08:48:17;;;;;;;19.25;17.33;;;;;;;;;;5114281;27;20506;-37
2021/12/19 08:50:42;;;;;;;20.13;17.15;;;;;;;;;;5115372;27;20027;-35
2021/12/19 08:53:08;;;;;;;20.95;16.17;;;;;;;;;;5115631;27;20690;-36
2021/12/19 08:55:34;;;;;;;15.20;13.55;;;;;;;;;;5112990;27;20077;-36
2021/12/19 08:57:59;;;;;;;18.05;16.15;;;;;;;;;;5113141;27;20028;-35
2021/12/19 09:00:25;;;;;;;16.90;15.10;;;;;;;;;;5111349;27;20019;-36
2021/12/19 09:02:53;;;;;;;23.05;16.38;;;;;;;;;;5115684;27;20134;-36
2021/12/19 09:05:19;;;;;;;18.77;14.35;;;;;;;;;;5112344;27;20057;-38
2021/12/19 09:07:44;;;;;;;21.05;16.27;;;;;;;;;;5112190;27;20023;-37
2021/12/19 09:10:11;;;;;;;37.33;22.77;;;;;;;;;;5112325;27;20018;-37
2021/12/19 09:12:36;;;;;;;69.55;58.17;;;;;;;;;;5112937;27;20073;-40
2021/12/19 09:15:03;;;;;;;88.97;68.15;;;;;;;;;;5116092;27;20701;-38
2021/12/19 09:17:29;;;;;;;75.38;60.53;;;;;;;;;;5117184;27;20028;-36
2021/12/19 09:19:54;;;;;;;82.72;63.13;;;;;;;;;;5113441;27;20043;-38
2021/12/19 09:22:19;;;;;;;41.63;35.38;;;;;;;;;;5114916;27;20552;-36
2021/12/19 09:24:45;;;;;;;56.08;37.40;;;;;;;;;;5120702;27;20484;-36
2021/12/19 09:27:10;;;;;;;50.33;36.72;;;;;;;;;;5113849;27;20027;-36
2021/12/19 09:29:35;;;;;;;57.97;42.92;;;;;;;;;;5117481;27;20015;-36
2021/12/19 09:32:01;;;;;;;64.90;48.25;;;;;;;;;;5116793;27;20105;-36
2021/12/19 09:34:27;;;;;;;53.08;44.78;;;;;;;;;;5116113;27;20020;-35
2021/12/19 09:36:53;;;;;;;56.55;43.63;;;;;;;;;;5117045;27;20045;-37
2021/12/19 09:39:18;;;;;;;47.35;42.00;;;;;;;;;;5117598;27;20027;-36
2021/12/19 09:41:45;;;;;;;51.20;41.78;;;;;;;;;;5118840;27;20057;-36
2021/12/19 09:44:11;;;;;;;54.78;37.80;;;;;;;;;;5113894;27;20050;-36
2021/12/19 09:46:38;;;;;;;40.83;36.03;;;;;;;;;;5114320;27;20098;-36
2021/12/19 09:49:07;;;;;;;57.40;41.63;;;;;;;;;;5114708;27;20487;-36
2021/12/19 09:51:32;;;;;;;46.80;35.70;;;;;;;;;;5113039;27;20015;-35
2021/12/19 09:53:58;;;;;;;48.58;41.85;;;;;;;;;;5113769;27;20077;-35
2021/12/19 09:56:23;;;;;;;50.00;42.90;;;;;;;;;;5112058;27;20800;-36
2021/12/19 09:58:50;;;;;;;56.33;47.80;;;;;;;;;;5116131;27;21370;-36
2021/12/19 10:01:15;;;;;;;43.50;39.10;;;;;;;;;;5117502;27;20026;-36
2021/12/19 10:03:40;;;;;;;43.92;39.28;;;;;;;;;;5114703;27;20011;-42
2021/12/19 10:06:13;;;;;;;47.33;42.63;;;;;;;;;;5117179;27;20021;-40
2021/12/19 10:08:39;;;;;;;38.35;34.30;;;;;;;;;;5117298;27;20015;-39
2021/12/19 10:11:13;;;;;;;49.90;42.05;;;;;;;;;;5119313;27;20175;-42
2021/12/19 10:13:38;;;;;;;43.90;39.22;;;;;;;;;;5117600;27;20023;-42
2021/12/19 10:16:23;;;;;;;44.88;39.40;;;;;;;;;;5116229;27;20030;-41
2021/12/19 10:18:49;;;;;;;46.10;41.17;;;;;;;;;;5115398;27;20015;-39
2021/12/19 10:21:17;;;;;;;47.33;42.35;;;;;;;;;;5118430;27;20120;-43
2021/12/19 10:23:42;;;;;;;30.08;27.08;;;;;;;;;;5112271;27;20069;-40
2021/12/19 10:26:09;;;;;;;38.33;34.15;;;;;;;;;;5118346;27;20480;-45
2021/12/19 10:28:54;;;;;;;46.13;35.75;;;;;;;;;;5112069;27;20144;-41
2021/12/19 10:31:20;;;;;;;45.60;38.60;;;;;;;;;;5113215;27;20055;-43
2021/12/19 10:33:47;;;;;;;44.28;35.85;;;;;;;;;;5109656;28;20700;-40
2021/12/19 10:36:12;;;;;;;43.28;38.45;;;;;;;;;;5110726;28;20051;-42
2021/12/19 10:38:48;;;;;;;44.50;38.30;;;;;;;;;;5106876;28;20061;-42
2021/12/19 10:41:20;;;;;;;36.85;32.42;;;;;;;;;;5110020;28;20074;-44
2021/12/19 10:43:45;;;;;;;32.13;27.77;;;;;;;;;;5111068;28;20024;-42
2021/12/19 10:46:10;;;;;;;42.92;29.35;;;;;;;;;;5116197;28;20050;-43
2021/12/19 10:48:39;;;;;;;55.65;48.28;;;;;;;;;;5116456;28;20100;-42
2021/12/19 10:51:07;;;;;;;46.53;41.55;;;;;;;;;;5116135;28;20042;-39
2021/12/19 10:53:35;;;;;;;46.55;35.20;;;;;;;;;;5117213;28;20019;-43
2021/12/19 10:56:02;;;;;;;46.67;37.33;;;;;;;;;;5117845;28;20085;-41
2021/12/19 10:58:31;;;;;;;25.17;22.67;;;;;;;;;;5118227;28;20027;-41
2021/12/19 11:01:04;;;;;;;31.83;28.52;;;;;;;;;;5118651;28;20023;-43
2021/12/19 11:03:34;;;;;;;44.00;39.58;;;;;;;;;;5116337;28;20436;-41
2021/12/19 11:05:59;;;;;;;59.78;46.80;;;;;;;;;;5120665;28;20140;-43
2021/12/19 11:08:30;;;;;;;54.75;46.45;;;;;;;;;;5120134;28;20132;-41
2021/12/19 11:10:55;;;;;;;48.93;38.90;;;;;;;;;;5118309;28;20566;-41
2021/12/19 11:13:21;;;;;;;51.25;45.85;;;;;;;;;;5116238;28;20247;-40
2021/12/19 11:15:49;;;;;;;44.15;39.65;;;;;;;;;;5114407;28;20071;-40
2021/12/19 11:18:14;;;;;;;34.08;30.25;;;;;;;;;;5117582;28;20023;-41
2021/12/19 11:20:40;;;;;;;42.67;30.58;;;;;;;;;;5115090;28;20036;-41
2021/12/19 11:23:05;;;;;;;38.00;25.67;;;;;;;;;;5113410;28;20030;-40
2021/12/19 11:25:30;;;;;;;28.63;23.13;;;;;;;;;;5116806;28;20061;-43
2021/12/19 11:27:56;;;;;;;21.98;18.50;;;;;;;;;;5108413;28;20031;-42
2021/12/19 11:30:22;;;;;;;24.23;21.80;;;;;;;;;;5107714;28;20031;-41
2021/12/19 11:32:47;;;;;;;21.70;14.65;;;;;;;;;;5109394;28;20027;-40
2021/12/19 11:35:16;;;;;;;17.92;16.13;;;;;;;;;;5112985;28;20392;-42
2021/12/19 11:37:46;;;;;;;14.93;12.57;;;;;;;;;;5109428;28;20036;-40
2021/12/19 11:40:16;;;;;;;17.30;15.73;;;;;;;;;;5108119;28;20024;-41
2021/12/19 11:42:42;;;;;;;20.38;18.27;;;;;;;;;;5114389;28;20316;-40
2021/12/19 11:47:56;;;;;;;16.25;13.80;;;;;;;;;;5110007;27;20064;-43
2021/12/19 11:50:25;;;;;;;17.58;15.40;;;;;;;;;;5115775;27;20062;-41
2021/12/19 11:52:52;;;;;;;14.88;13.23;;;;;;;;;;5112523;27;20058;-41
2021/12/19 11:55:22;;;;;;;13.18;9.55;;;;;;;;;;5113620;27;20606;-42
2021/12/19 11:58:06;;;;;;;11.65;10.45;;;;;;;;;;5109155;27;20457;-40
2021/12/19 12:00:33;;;;;;;7.20;5.32;;;;;;;;;;5110607;27;20023;-43
2021/12/19 12:03:13;;;;;;;6.88;6.10;;;;;;;;;;5111436;27;20049;-42
2021/12/19 12:05:44;;;;;;;5.45;4.95;;;;;;;;;;5115567;27;20047;-39
2021/12/19 12:08:11;;;;;;;5.70;4.95;;;;;;;;;;5095324;27;20019;-43
2021/12/19 12:10:52;;;;;;;11.55;4.03;;;;;;;;;;5111736;27;20027;-39
2021/12/19 12:13:28;;;;;;;7.10;4.45;;;;;;;;;;5114636;27;20103;-39
2021/12/19 12:16:02;;;;;;;7.05;5.15;;;;;;;;;;5116108;27;20563;-42
2021/12/19 12:18:28;;;;;;;5.65;5.15;;;;;;;;;;5116027;27;20019;-43
2021/12/19 12:20:54;;;;;;;7.07;5.18;;;;;;;;;;5117761;27;20054;-42
2021/12/19 12:23:24;;;;;;;18.55;5.85;;;;;;;;;;5113763;27;20789;-40
2021/12/19 12:25:49;;;;;;;6.50;4.30;;;;;;;;;;5113286;27;20523;-41
2021/12/19 12:28:17;;;;;;;6.55;4.10;;;;;;;;;;5111747;27;20019;-40
2021/12/19 12:30:47;;;;;;;12.68;5.70;;;;;;;;;;5110377;27;20043;-40
2021/12/19 12:33:14;;;;;;;6.03;3.97;;;;;;;;;;5110578;27;20023;-40
2021/12/19 12:35:41;;;;;;;8.50;4.75;;;;;;;;;;5111720;27;20138;-42
2021/12/19 12:38:07;;;;;;;6.57;5.13;;;;;;;;;;5117333;27;20023;-39
2021/12/19 12:43:21;;;;;;;11.52;5.97;;;;;;;;;;5090524;27;20035;-39
2021/12/19 12:45:50;;;;;;;22.17;13.60;;;;;;;;;;5108609;27;20060;-41
2021/12/19 12:48:30;;;;;;;11.23;8.32;;;;;;;;;;5109449;27;20063;-43
2021/12/19 12:50:55;;;;;;;8.60;7.18;;;;;;;;;;5112156;27;20069;-42
2021/12/19 12:53:32;;;;;;;8.90;6.57;;;;;;;;;;5108263;27;20774;-42
2021/12/19 12:56:22;;;;;;;24.05;16.92;;;;;;;;;;5113583;27;20035;-39
2021/12/19 12:58:48;;;;;;;24.20;17.42;;;;;;;;;;5103321;27;20042;-40
2021/12/19 13:01:13;;;;;;;9.65;8.40;;;;;;;;;;5113986;27;20023;-41
2021/12/19 13:03:38;;;;;;;7.18;5.85;;;;;;;;;;5110956;27;20034;-42
2021/12/19 13:06:04;;;;;;;6.60;4.82;;;;;;;;;;5111864;27;20551;-43
2021/12/19 13:08:29;;;;;;;7.82;3.88;;;;;;;;;;5110955;27;20027;-43
2021/12/19 13:10:54;;;;;;;10.45;5.38;;;;;;;;;;5112234;27;20034;-41
2021/12/19 13:13:24;;;;;;;6.13;5.43;;;;;;;;;;5111376;27;20019;-41
2021/12/19 13:15:49;;;;;;;7.43;4.13;;;;;;;;;;5112364;27;20023;-41
2021/12/19 13:18:15;;;;;;;6.55;5.15;;;;;;;;;;5112723;27;20075;-43
2021/12/19 13:20:40;;;;;;;10.88;5.05;;;;;;;;;;5111230;27;20066;-44
2021/12/19 13:23:05;;;;;;;6.35;5.72;;;;;;;;;;5112857;27;20396;-43
2021/12/19 13:25:38;;;;;;;16.23;6.35;;;;;;;;;;5115105;27;20031;-43
2021/12/19 13:28:05;;;;;;;12.40;6.28;;;;;;;;;;5107987;27;20403;-42
2021/12/19 13:30:34;;;;;;;10.68;5.80;;;;;;;;;;5111446;27;20033;-41
2021/12/19 13:33:04;;;;;;;7.72;5.38;;;;;;;;;;5111091;27;20133;-41
2021/12/19 13:35:38;;;;;;;9.52;8.57;;;;;;;;;;5111058;27;20110;-44
2021/12/19 13:38:03;;;;;;;10.57;7.18;;;;;;;;;;5111801;27;20016;-45
2021/12/19 13:40:30;;;;;;;6.95;5.07;;;;;;;;;;5111406;27;20604;-43
2021/12/19 13:43:00;;;;;;;7.95;7.25;;;;;;;;;;5111851;27;20084;-43
2021/12/19 13:45:27;;;;;;;10.40;5.90;;;;;;;;;;5112011;27;20020;-41
2021/12/19 13:47:53;;;;;;;11.05;9.90;;;;;;;;;;5112192;27;20023;-42
2021/12/19 13:50:19;;;;;;;7.28;6.57;;;;;;;;;;5112808;27;20015;-41
2021/12/19 13:52:44;;;;;;;10.68;6.72;;;;;;;;;;5112619;27;20503;-41
2021/12/19 13:55:12;;;;;;;8.80;4.97;;;;;;;;;;5110583;27;20027;-41
2021/12/19 13:57:37;;;;;;;44.97;34.15;;;;;;;;;;5111675;27;20263;-43
2021/12/19 14:00:07;;;;;;;16.08;11.43;;;;;;;;;;5111560;27;20646;-40
2021/12/19 14:02:41;;;;;;;12.02;10.75;;;;;;;;;;5112237;27;20030;-41
2021/12/19 14:05:32;;;;;;;15.43;13.02;;;;;;;;;;5111303;27;20022;-42
2021/12/19 14:07:57;;;;;;;;;;;;;;;;;;5084961;27;20039;-40
2021/12/19 14:10:23;;;;;;;12.02;8.15;;;;;;;;;;5109851;27;19907;-41
2021/12/19 14:13:05;;;;;;;12.73;5.63;;;;;;;;;;5110595;27;20030;-43
2021/12/19 14:15:30;;;;;;;;;;;;;;;;;;5110278;27;20053;-42
2021/12/19 14:17:55;;;;;;;6.40;5.70;;;;;;;;;;5109204;27;19950;-43
2021/12/19 14:20:32;;;;;;;21.88;10.15;;;;;;;;;;5103950;27;21123;-41
2021/12/19 14:23:13;;;;;;;8.25;7.45;;;;;;;;;;5110260;27;20029;-43
2021/12/19 14:25:38;;;;;;;6.72;5.97;;;;;;;;;;5113515;27;20474;-40
2021/12/19 14:28:16;;;;;;;9.05;6.65;;;;;;;;;;5108758;27;20027;-42
2021/12/19 14:30:41;;;;;;;6.78;5.32;;;;;;;;;;5106874;28;20022;-43
2021/12/19 14:33:06;;;;;;;5.43;4.07;;;;;;;;;;5112250;27;20019;-43
2021/12/19 14:35:36;;;;;;;15.65;7.95;;;;;;;;;;5114117;28;20023;-43
2021/12/19 14:38:03;;;;;;;11.45;8.65;;;;;;;;;;5108878;28;20552;-43
2021/12/19 14:40:30;;;;;;;12.18;7.13;;;;;;;;;;5106735;28;20536;-40
2021/12/19 14:42:59;;;;;;;6.85;6.15;;;;;;;;;;5108898;28;20042;-43
2021/12/19 14:45:30;;;;;;;8.43;7.63;;;;;;;;;;5113675;28;20053;-46
2021/12/19 14:47:58;;;;;;;14.35;6.80;;;;;;;;;;5111894;28;20175;-40
2021/12/19 14:50:59;;;;;;;18.83;7.63;;;;;;;;;;5107038;28;20031;-42
2021/12/19 14:53:28;;;;;;;15.85;11.75;;;;;;;;;;5046032;28;20025;-41
2021/12/19 14:56:02;;;;;;;14.55;8.77;;;;;;;;;;5097448;28;20042;-47
2021/12/19 14:58:29;;;;;;;9.15;8.20;;;;;;;;;;5112050;28;20011;-46
2021/12/19 15:01:03;;;;;;;14.20;9.85;;;;;;;;;;5117292;28;20031;-41
2021/12/19 15:03:29;;;;;;;19.05;10.80;;;;;;;;;;5112550;28;20039;-42
2021/12/19 15:05:55;;;;;;;13.27;10.60;;;;;;;;;;5108456;28;20020;-44
2021/12/19 15:08:25;;;;;;;12.18;9.00;;;;;;;;;;5108977;28;20031;-42
2021/12/19 15:10:51;;;;;;;10.70;9.60;;;;;;;;;;5113142;28;20038;-43
2021/12/19 15:13:17;;;;;;;10.15;8.27;;;;;;;;;;5106983;28;20016;-42
2021/12/19 15:15:43;;;;;;;8.60;7.80;;;;;;;;;;5106617;28;20039;-43
2021/12/19 15:18:08;;;;;;;10.48;8.05;;;;;;;;;;5113631;28;20083;-41
2021/12/19 15:20:34;;;;;;;10.93;9.82;;;;;;;;;;5108646;28;20318;-44
2021/12/19 15:22:59;;;;;;;31.27;19.70;;;;;;;;;;5112693;27;20027;-44
2021/12/19 15:25:25;;;;;;;26.42;14.55;;;;;;;;;;5115425;27;20589;-44
2021/12/19 15:27:50;;;;;;;28.27;22.98;;;;;;;;;;5112303;27;20026;-44
2021/12/19 15:30:16;;;;;;;19.95;17.95;;;;;;;;;;5118294;27;20035;-42
2021/12/19 15:32:41;;;;;;;35.20;20.73;;;;;;;;;;5095726;27;20824;-45
2021/12/19 15:35:08;;;;;;;27.00;21.83;;;;;;;;;;5111834;27;20035;-41
2021/12/19 15:37:33;;;;;;;24.42;18.50;;;;;;;;;;5110064;27;20032;-43
2021/12/19 15:39:58;;;;;;;23.27;19.52;;;;;;;;;;5110728;27;20532;-43
2021/12/19 15:42:24;;;;;;;20.33;15.45;;;;;;;;;;5114521;27;20511;-43
2021/12/19 15:44:49;;;;;;;16.65;11.43;;;;;;;;;;5114966;27;20023;-46